Time;durP1;ratioP1;P1;durP2;ratioP2;P2;SDS_P1;SDS_P2;PMS_P1;PMS_P2;Temp;Humidity;BMP_temperature;BMP_pressure;BME280_temperature;BME280_humidity;BME280_pressure;Samples;Min_cycle;Max_cycle;Signal;HPM_P1;HPM_P2
2024/03/06 00:00:04;;;;;;;9.15;5.07;;;21.70;33.90;;;;;;5072550;28;20277;-69
2024/03/06 00:02:31;;;;;;;7.15;5.05;;;21.70;34.00;;;;;;5072563;28;20305;-69
2024/03/06 00:04:58;;;;;;;8.15;4.90;;;21.70;33.90;;;;;;5071870;28;20566;-61
2024/03/06 00:07:26;;;;;;;9.18;4.97;;;21.70;33.90;;;;;;5072452;28;20241;-68
2024/03/06 00:09:53;;;;;;;9.82;5.47;;;21.70;33.90;;;;;;5072416;28;20197;-61
2024/03/06 00:12:20;;;;;;;10.70;4.93;;;21.70;34.60;;;;;;5071671;28;20218;-71
2024/03/06 00:14:47;;;;;;;8.00;4.30;;;21.70;34.60;;;;;;5072296;28;20267;-70
2024/03/06 00:17:16;;;;;;;7.82;5.20;;;21.70;33.90;;;;;;5072225;28;20195;-66
2024/03/06 00:19:44;;;;;;;11.07;5.45;;;21.70;33.90;;;;;;5072174;28;20199;-62
2024/03/06 00:22:11;;;;;;;7.97;4.78;;;21.70;33.90;;;;;;5071998;28;20189;-70
2024/03/06 00:24:37;;;;;;;11.70;5.40;;;21.70;33.90;;;;;;5072264;28;20187;-68
2024/03/06 00:27:05;;;;;;;8.35;5.18;;;21.70;33.90;;;;;;5071975;28;20213;-71
2024/03/06 00:29:32;;;;;;;9.10;4.90;;;21.70;33.90;;;;;;5072285;28;20667;-71
2024/03/06 00:31:58;;;;;;;8.75;4.70;;;21.70;33.90;;;;;;5072149;28;20191;-65
2024/03/06 00:34:27;;;;;;;10.82;4.88;;;21.70;33.90;;;;;;5072322;28;20210;-62
2024/03/06 00:36:54;;;;;;;9.23;4.80;;;21.70;33.90;;;;;;5076195;28;20210;-62
2024/03/06 00:39:21;;;;;;;8.18;4.45;;;21.70;33.90;;;;;;5075989;28;20591;-68
2024/03/06 00:41:48;;;;;;;7.32;4.68;;;21.70;33.80;;;;;;5075922;28;20183;-61
2024/03/06 00:44:16;;;;;;;11.88;5.00;;;21.70;33.80;;;;;;5076083;28;20589;-62
2024/03/06 00:46:43;;;;;;;10.38;5.05;;;21.70;33.80;;;;;;5075785;28;20282;-65
2024/03/06 00:49:10;;;;;;;9.93;5.05;;;21.60;33.70;;;;;;5075648;28;20225;-68
2024/03/06 00:51:38;;;;;;;8.90;4.80;;;21.70;33.70;;;;;;5075972;28;20193;-64
2024/03/06 00:54:05;;;;;;;7.82;4.50;;;21.70;33.70;;;;;;5075996;28;20246;-69
2024/03/06 00:56:32;;;;;;;7.18;4.45;;;21.60;33.60;;;;;;5075566;28;20293;-62
2024/03/06 00:58:59;;;;;;;9.10;4.93;;;21.60;33.60;;;;;;5075934;28;20219;-69
2024/03/06 01:01:27;;;;;;;7.90;5.25;;;21.60;33.60;;;;;;5075725;28;20213;-70
2024/03/06 01:03:55;;;;;;;10.55;5.05;;;21.60;33.60;;;;;;5075377;28;20215;-71
2024/03/06 01:06:22;;;;;;;8.75;5.15;;;21.60;33.50;;;;;;5075340;28;20229;-71
2024/03/06 01:08:50;;;;;;;9.70;5.50;;;21.60;33.50;;;;;;5075737;28;20241;-71
2024/03/06 01:11:17;;;;;;;10.75;5.03;;;21.60;33.60;;;;;;5075404;28;20715;-61
2024/03/06 01:13:44;;;;;;;8.43;5.10;;;21.60;33.50;;;;;;5075246;28;20240;-71
2024/03/06 01:16:10;;;;;;;10.52;5.85;;;21.60;33.60;;;;;;5075441;28;20233;-61
2024/03/06 01:18:37;;;;;;;10.30;5.60;;;21.60;33.50;;;;;;5075042;28;20217;-68
2024/03/06 01:21:04;;;;;;;9.82;5.55;;;21.60;33.50;;;;;;5075339;28;20273;-72
2024/03/06 01:23:31;;;;;;;9.05;5.15;;;21.60;33.50;;;;;;5075125;28;20803;-71
2024/03/06 01:26:00;;;;;;;8.13;5.30;;;21.60;33.40;;;;;;5074753;28;20621;-70
2024/03/06 01:28:26;;;;;;;8.55;5.18;;;21.60;33.40;;;;;;5075271;28;20302;-63
2024/03/06 01:30:54;;;;;;;7.88;4.43;;;21.70;33.50;;;;;;5075145;28;20195;-61
2024/03/06 01:33:21;;;;;;;9.43;4.82;;;21.70;33.40;;;;;;5074966;28;20219;-71
2024/03/06 01:35:48;;;;;;;11.80;5.07;;;21.60;33.30;;;;;;5074945;28;20214;-72
2024/03/06 01:38:15;;;;;;;7.95;5.72;;;21.60;33.30;;;;;;5074824;28;20310;-67
2024/03/06 01:40:44;;;;;;;9.85;5.05;;;21.60;33.30;;;;;;5074784;28;20183;-72
2024/03/06 01:43:21;;;;;;;7.78;4.72;;;21.60;33.30;;;;;;5075027;28;20215;-67
2024/03/06 01:45:49;;;;;;;10.52;5.30;;;21.60;33.30;;;;;;5074392;28;20213;-68
2024/03/06 01:48:17;;;;;;;9.13;5.03;;;21.60;33.40;;;;;;5074751;28;20218;-65
2024/03/06 01:50:44;;;;;;;8.32;4.93;;;21.60;33.30;;;;;;5074787;28;20197;-65
2024/03/06 01:53:11;;;;;;;9.85;5.57;;;21.60;33.30;;;;;;5074619;28;20221;-72
2024/03/06 01:55:38;;;;;;;9.82;5.22;;;21.60;33.30;;;;;;5074499;28;20221;-68
2024/03/06 01:58:06;;;;;;;9.52;5.35;;;21.60;33.20;;;;;;5074789;28;20242;-62
2024/03/06 02:00:35;;;;;;;7.78;5.05;;;21.60;33.30;;;;;;5074398;28;20613;-64
2024/03/06 02:03:02;;;;;;;9.02;5.38;;;21.60;33.20;;;;;;5074394;28;20305;-68
2024/03/06 02:05:30;;;;;;;10.30;5.63;;;21.60;33.20;;;;;;5074527;28;20222;-66
2024/03/06 02:07:59;;;;;;;11.20;5.07;;;21.60;33.20;;;;;;5074541;28;20215;-67
2024/03/06 02:10:27;;;;;;;8.80;5.15;;;21.60;33.20;;;;;;5074255;28;20191;-71
2024/03/06 02:12:54;;;;;;;9.88;5.57;;;21.60;33.10;;;;;;5074165;28;20239;-71
2024/03/06 02:15:21;;;;;;;10.32;5.82;;;21.60;33.20;;;;;;5074472;28;20191;-62
2024/03/06 02:17:50;;;;;;;11.02;5.50;;;21.60;33.10;;;;;;5074473;28;20302;-67
2024/03/06 02:20:17;;;;;;;11.70;5.22;;;21.60;33.10;;;;;;5073953;28;20649;-71
2024/03/06 02:22:46;;;;;;;9.00;5.25;;;21.60;33.10;;;;;;5074494;28;20305;-70
2024/03/06 02:25:14;;;;;;;9.65;5.13;;;21.50;33.10;;;;;;5073981;28;20304;-67
2024/03/06 02:27:41;;;;;;;9.02;5.13;;;21.50;33.10;;;;;;5074115;28;20214;-65
2024/03/06 02:30:09;;;;;;;7.03;4.90;;;21.50;33.10;;;;;;5074148;28;20197;-72
2024/03/06 02:32:36;;;;;;;9.05;5.20;;;21.50;33.10;;;;;;5073768;28;20210;-72
2024/03/06 02:35:03;;;;;;;7.97;5.05;;;21.50;33.10;;;;;;5073612;28;20183;-72
2024/03/06 02:37:30;;;;;;;8.45;5.07;;;21.50;33.00;;;;;;5073873;28;20230;-71
2024/03/06 02:39:59;;;;;;;8.77;5.20;;;21.50;33.00;;;;;;5073308;28;20552;-68
2024/03/06 02:42:27;;;;;;;8.15;4.97;;;21.50;33.00;;;;;;5073557;28;20713;-71
2024/03/06 02:44:54;;;;;;;6.63;4.80;;;21.50;33.00;;;;;;5073748;28;20304;-62
2024/03/06 02:47:21;;;;;;;8.48;4.85;;;21.50;33.00;;;;;;5071652;28;20281;-69
2024/03/06 02:49:48;;;;;;;8.65;4.90;;;21.50;32.90;;;;;;5056332;28;20282;-71
2024/03/06 02:52:14;;;;;;;10.13;5.10;;;21.50;32.90;;;;;;5053465;28;20196;-61
2024/03/06 02:54:42;;;;;;;8.77;4.88;;;21.50;32.90;;;;;;5053375;28;20194;-71
2024/03/06 02:57:10;;;;;;;8.45;5.10;;;21.50;32.80;;;;;;5052291;28;20693;-64
2024/03/06 02:59:40;;;;;;;9.88;4.70;;;21.50;32.80;;;;;;5053511;28;20201;-68
2024/03/06 03:02:07;;;;;;;7.97;4.47;;;21.50;32.80;;;;;;5053254;28;20196;-65
2024/03/06 03:04:33;;;;;;;7.82;4.72;;;21.50;32.80;;;;;;5053280;28;20444;-70
2024/03/06 03:07:00;;;;;;;6.47;4.47;;;21.50;33.10;;;;;;5053042;28;20194;-61
2024/03/06 03:09:27;;;;;;;8.35;4.70;;;21.50;32.80;;;;;;5053298;28;20222;-70
2024/03/06 03:11:54;;;;;;;8.73;4.43;;;21.50;32.80;;;;;;5053274;28;20283;-63
2024/03/06 03:14:22;;;;;;;8.45;4.47;;;21.50;32.80;;;;;;5052646;28;20235;-62
2024/03/06 03:16:49;;;;;;;8.40;4.68;;;21.50;32.80;;;;;;5052572;28;20774;-71
2024/03/06 03:19:16;;;;;;;9.23;4.53;;;21.50;32.80;;;;;;5053195;28;20446;-70
2024/03/06 03:21:45;;;;;;;7.55;4.15;;;21.50;32.80;;;;;;5052865;28;20672;-71
2024/03/06 03:24:12;;;;;;;8.07;4.40;;;21.60;32.80;;;;;;5052769;28;20788;-67
2024/03/06 03:26:41;;;;;;;6.50;4.25;;;21.60;32.80;;;;;;5052724;28;20223;-67
2024/03/06 03:29:08;;;;;;;6.60;3.92;;;21.60;32.80;;;;;;5052793;28;20788;-70
2024/03/06 03:31:38;;;;;;;6.78;4.45;;;21.60;32.80;;;;;;5052760;28;20195;-62
2024/03/06 03:34:06;;;;;;;6.20;3.53;;;21.60;32.80;;;;;;5052975;28;20224;-70
2024/03/06 03:36:33;;;;;;;8.07;3.67;;;21.60;32.80;;;;;;5052732;28;20215;-61
2024/03/06 03:39:00;;;;;;;8.40;4.38;;;21.60;32.90;;;;;;5052405;28;20747;-71
2024/03/06 03:41:27;;;;;;;6.82;3.80;;;21.50;32.70;;;;;;5052517;28;20187;-62
2024/03/06 03:43:53;;;;;;;7.20;3.97;;;21.50;32.70;;;;;;5052651;28;20222;-72
2024/03/06 03:46:20;;;;;;;7.85;4.43;;;21.50;32.70;;;;;;5052536;28;20286;-71
2024/03/06 03:48:48;;;;;;;6.72;3.92;;;21.50;32.70;;;;;;5053127;28;20345;-68
2024/03/06 03:51:16;;;;;;;7.75;4.07;;;21.50;32.70;;;;;;5057735;28;20653;-67
2024/03/06 03:53:43;;;;;;;6.53;3.75;;;21.50;32.70;;;;;;5072424;28;20302;-63
2024/03/06 03:56:10;;;;;;;6.57;3.70;;;21.50;32.70;;;;;;5072248;28;20186;-62
2024/03/06 03:58:37;;;;;;;9.10;4.00;;;21.50;32.70;;;;;;5072713;28;20218;-69
2024/03/06 04:01:04;;;;;;;6.07;3.78;;;21.50;32.70;;;;;;5072039;28;20676;-72
2024/03/06 04:03:31;;;;;;;6.97;4.05;;;21.50;32.70;;;;;;5072428;28;20218;-67
2024/03/06 04:05:59;;;;;;;7.13;4.18;;;21.50;32.70;;;;;;5072381;28;20198;-68
2024/03/06 04:08:25;;;;;;;6.57;3.38;;;21.50;32.70;;;;;;5072154;28;20215;-72
2024/03/06 04:10:52;;;;;;;7.45;4.07;;;21.50;32.70;;;;;;5072518;28;20187;-70
2024/03/06 04:13:20;;;;;;;8.32;3.80;;;21.40;32.60;;;;;;5072054;28;20227;-62
2024/03/06 04:15:47;;;;;;;7.28;3.95;;;21.40;32.60;;;;;;5072233;28;20195;-71
2024/03/06 04:18:15;;;;;;;5.72;3.72;;;21.50;32.70;;;;;;5072335;28;20234;-72
2024/03/06 04:20:41;;;;;;;7.13;4.10;;;21.50;32.70;;;;;;5072356;28;20183;-71
2024/03/06 04:23:10;;;;;;;6.00;3.90;;;21.40;32.60;;;;;;5072204;28;20237;-68
2024/03/06 04:25:37;;;;;;;7.15;4.15;;;21.40;32.60;;;;;;5072254;28;20194;-65
2024/03/06 04:28:04;;;;;;;7.63;4.05;;;21.40;32.60;;;;;;5072228;28;20218;-66
2024/03/06 04:30:31;;;;;;;7.03;3.85;;;21.40;32.60;;;;;;5072106;28;20189;-65
2024/03/06 04:32:57;;;;;;;5.95;3.58;;;21.40;32.60;;;;;;5072177;28;20301;-69
2024/03/06 04:35:24;;;;;;;5.97;3.72;;;21.40;32.60;;;;;;5072134;28;20195;-68
2024/03/06 04:37:51;;;;;;;6.65;3.78;;;21.40;32.60;;;;;;5071937;28;20235;-71
2024/03/06 04:40:22;;;;;;;6.65;3.45;;;21.40;32.60;;;;;;5072144;28;20274;-68
2024/03/06 04:42:49;;;;;;;5.68;3.40;;;21.40;32.60;;;;;;5072074;28;20568;-64
2024/03/06 04:45:17;;;;;;;5.95;3.90;;;21.40;32.60;;;;;;5071789;28;20191;-68
2024/03/06 04:47:44;;;;;;;5.75;3.45;;;21.40;32.60;;;;;;5072067;28;20392;-70
2024/03/06 04:50:12;;;;;;;6.38;3.53;;;21.40;32.60;;;;;;5071639;28;20187;-71
2024/03/06 04:52:39;;;;;;;5.60;3.30;;;21.40;32.60;;;;;;5071835;28;20311;-71
2024/03/06 04:55:09;;;;;;;4.57;2.90;;;21.40;32.60;;;;;;5071880;28;20245;-65
2024/03/06 04:57:38;;;;;;;7.82;3.50;;;21.40;32.60;;;;;;5071871;28;20250;-63
2024/03/06 05:00:06;;;;;;;5.93;3.40;;;21.40;32.60;;;;;;5071993;28;20289;-69
2024/03/06 05:02:34;;;;;;;5.43;3.30;;;21.40;32.60;;;;;;5071597;28;20187;-70
2024/03/06 05:05:02;;;;;;;6.15;3.25;;;21.40;32.60;;;;;;5071771;28;20183;-65
2024/03/06 05:07:29;;;;;;;4.22;2.97;;;21.40;32.60;;;;;;5071345;28;20191;-71
2024/03/06 05:09:55;;;;;;;5.57;3.10;;;21.40;32.50;;;;;;5071913;28;20191;-62
2024/03/06 05:12:22;;;;;;;3.72;2.90;;;21.40;32.50;;;;;;5071487;28;20240;-65
2024/03/06 05:14:51;;;;;;;4.70;3.13;;;21.40;32.50;;;;;;5071534;28;20244;-72
2024/03/06 05:17:18;;;;;;;4.82;3.03;;;21.40;32.50;;;;;;5072035;28;20231;-72
2024/03/06 05:19:45;;;;;;;5.20;3.15;;;21.40;32.40;;;;;;5071785;28;20183;-63
2024/03/06 05:22:12;;;;;;;4.53;2.95;;;21.40;32.30;;;;;;5074558;28;20275;-64
2024/03/06 05:24:39;;;;;;;4.80;3.10;;;21.40;32.40;;;;;;5075494;28;20215;-62
2024/03/06 05:27:06;;;;;;;4.72;2.80;;;21.40;32.40;;;;;;5075290;28;20561;-66
2024/03/06 05:29:32;;;;;;;4.32;2.80;;;21.40;32.30;;;;;;5075304;28;20652;-68
2024/03/06 05:32:01;;;;;;;5.07;3.03;;;21.40;32.40;;;;;;5075179;28;20197;-65
2024/03/06 05:34:27;;;;;;;3.65;2.50;;;21.40;32.40;;;;;;5075225;28;20218;-61
2024/03/06 05:36:54;;;;;;;3.58;2.67;;;21.30;32.30;;;;;;5074538;28;20726;-64
2024/03/06 05:39:21;;;;;;;4.22;3.05;;;21.40;32.40;;;;;;5075151;28;20311;-71
2024/03/06 05:41:48;;;;;;;4.00;2.75;;;21.30;32.30;;;;;;5075064;28;20281;-69
2024/03/06 05:44:15;;;;;;;4.75;3.00;;;21.40;32.30;;;;;;5074912;28;20225;-71
2024/03/06 05:46:42;;;;;;;4.55;2.53;;;21.30;32.20;;;;;;5075021;28;20191;-71
2024/03/06 05:49:10;;;;;;;4.22;2.83;;;21.30;32.20;;;;;;5074671;28;20707;-63
2024/03/06 05:51:37;;;;;;;3.45;2.40;;;21.30;32.20;;;;;;5074629;28;20191;-62
2024/03/06 05:54:08;;;;;;;3.53;2.42;;;21.40;32.30;;;;;;5074824;28;20222;-66
2024/03/06 05:56:35;;;;;;;3.38;2.55;;;21.30;32.20;;;;;;5074347;28;20565;-67
2024/03/06 05:59:04;;;;;;;4.70;2.78;;;21.30;32.20;;;;;;5074694;28;20305;-70
2024/03/06 06:01:31;;;;;;;3.83;2.35;;;21.30;32.10;;;;;;5074713;28;20236;-70
2024/03/06 06:03:58;;;;;;;4.00;2.53;;;21.30;32.20;;;;;;5074241;28;20651;-68
2024/03/06 06:06:26;;;;;;;5.03;2.55;;;21.30;32.20;;;;;;5074348;28;20202;-70
2024/03/06 06:08:53;;;;;;;5.72;2.70;;;21.30;32.80;;;;;;5074730;28;20223;-72
2024/03/06 06:11:20;;;;;;;3.75;2.75;;;21.30;32.10;;;;;;5074134;28;20226;-71
2024/03/06 06:13:47;;;;;;;4.00;2.42;;;21.30;32.10;;;;;;5073881;28;20234;-63
2024/03/06 06:16:14;;;;;;;3.95;2.45;;;21.30;32.00;;;;;;5074050;28;20665;-70
2024/03/06 06:18:41;;;;;;;4.47;2.78;;;21.30;32.00;;;;;;5074066;28;20226;-71
2024/03/06 06:21:08;;;;;;;3.83;2.35;;;21.30;32.00;;;;;;5073999;28;20202;-63
2024/03/06 06:23:37;;;;;;;4.07;2.50;;;21.30;32.00;;;;;;5074317;28;20436;-62
2024/03/06 06:26:04;;;;;;;3.47;2.38;;;21.30;32.00;;;;;;5073937;28;20194;-71
2024/03/06 06:28:30;;;;;;;2.80;2.40;;;21.30;32.00;;;;;;5073929;28;20214;-63
2024/03/06 06:30:57;;;;;;;2.90;2.28;;;21.30;32.00;;;;;;5074100;28;20213;-63
2024/03/06 06:33:24;;;;;;;2.75;2.20;;;21.30;31.90;;;;;;5074076;28;20214;-70
2024/03/06 06:35:51;;;;;;;2.90;2.10;;;21.30;32.00;;;;;;5073759;28;20187;-69
2024/03/06 06:38:19;;;;;;;3.13;2.08;;;21.20;32.50;;;;;;5073916;28;20269;-67
2024/03/06 06:40:48;;;;;;;3.17;2.15;;;21.30;31.90;;;;;;5073854;28;20195;-71
2024/03/06 06:43:15;;;;;;;2.33;1.90;;;21.30;31.90;;;;;;5073501;28;20214;-63
2024/03/06 06:45:42;;;;;;;3.25;2.22;;;21.30;31.90;;;;;;5073841;28;20187;-72
2024/03/06 06:48:09;;;;;;;2.63;2.10;;;21.30;31.90;;;;;;5073447;28;20722;-72
2024/03/06 06:50:36;;;;;;;3.20;2.03;;;21.30;31.70;;;;;;5073165;28;20195;-62
2024/03/06 06:53:03;;;;;;;2.15;1.70;;;21.40;31.70;;;;;;5073596;28;20215;-70
2024/03/06 06:55:30;;;;;;;2.90;1.90;;;21.40;31.70;;;;;;5073577;28;20193;-65
2024/03/06 06:57:58;;;;;;;2.95;1.90;;;21.40;31.70;;;;;;5073229;28;20240;-62
2024/03/06 07:00:25;;;;;;;2.60;1.95;;;21.40;31.70;;;;;;5073213;28;20217;-71
2024/03/06 07:02:52;;;;;;;3.53;1.90;;;21.40;31.70;;;;;;5073124;28;20780;-71
2024/03/06 07:05:19;;;;;;;2.30;1.98;;;21.30;31.50;;;;;;5073031;28;20187;-68
2024/03/06 07:07:47;;;;;;;2.72;1.83;;;21.40;31.60;;;;;;5073326;28;20199;-63
2024/03/06 07:10:14;;;;;;;3.25;2.10;;;21.40;31.60;;;;;;5073370;28;20266;-72
2024/03/06 07:12:41;;;;;;;3.53;1.90;;;21.40;31.50;;;;;;5072784;28;20265;-70
2024/03/06 07:15:09;;;;;;;2.38;1.90;;;21.30;31.50;;;;;;5072866;28;20186;-71
2024/03/06 07:17:36;;;;;;;2.10;1.60;;;21.30;31.40;;;;;;5072962;28;20309;-72
2024/03/06 07:20:05;;;;;;;2.92;2.10;;;21.30;31.40;;;;;;5072620;28;20700;-71
2024/03/06 07:22:33;;;;;;;2.00;1.55;;;21.30;31.50;;;;;;5073005;28;20282;-72
2024/03/06 07:25:01;;;;;;;3.15;2.10;;;21.30;31.50;;;;;;5072713;28;20202;-69
2024/03/06 07:27:28;;;;;;;2.13;1.70;;;21.30;31.50;;;;;;5072742;28;20604;-71
2024/03/06 07:29:55;;;;;;;2.13;1.70;;;21.30;31.50;;;;;;5072957;28;20187;-67
2024/03/06 07:32:23;;;;;;;2.33;1.90;;;21.30;32.20;;;;;;5072961;28;20225;-65
2024/03/06 07:34:50;;;;;;;4.03;1.88;;;21.30;31.50;;;;;;5072302;28;20770;-64
2024/03/06 07:37:16;;;;;;;2.08;1.88;;;21.30;32.20;;;;;;5072693;28;20293;-62
2024/03/06 07:39:43;;;;;;;2.85;1.80;;;21.30;31.50;;;;;;5072950;28;20284;-72
2024/03/06 07:42:11;;;;;;;3.45;1.98;;;21.30;31.50;;;;;;5072525;28;20197;-61
2024/03/06 07:44:38;;;;;;;1.92;1.58;;;21.20;31.40;;;;;;5072486;28;20222;-71
2024/03/06 07:47:05;;;;;;;2.78;2.08;;;21.30;31.40;;;;;;5072583;28;20723;-70
2024/03/06 07:49:33;;;;;;;2.22;1.80;;;21.20;31.40;;;;;;5071978;28;20573;-74
2024/03/06 07:52:01;;;;;;;2.30;1.75;;;21.30;31.40;;;;;;5061198;28;20205;-71
2024/03/06 07:54:28;;;;;;;1.48;1.38;;;21.30;31.50;;;;;;5041444;28;20218;-66
2024/03/06 07:56:55;;;;;;;1.73;1.60;;;21.30;31.50;;;;;;5067652;28;20195;-73
2024/03/06 07:59:22;;;;;;;4.60;1.80;;;21.30;31.40;;;;;;5067780;28;20313;-72
2024/03/06 08:01:49;;;;;;;2.65;1.92;;;21.40;31.40;;;;;;5070444;28;20538;-73
2024/03/06 08:04:17;;;;;;;2.35;2.13;;;21.50;31.50;;;;;;5068485;28;20704;-71
2024/03/06 08:06:46;;;;;;;2.15;1.65;;;21.50;31.40;;;;;;5069670;28;20194;-71
2024/03/06 08:09:16;;;;;;;3.15;1.85;;;21.50;31.50;;;;;;5059788;28;20596;-63
2024/03/06 08:11:43;;;;;;;3.95;2.10;;;21.60;31.70;;;;;;5026912;28;21078;-71
2024/03/06 08:14:10;;;;;;;4.13;1.80;;;21.70;31.80;;;;;;5062003;28;20291;-70
2024/03/06 08:16:37;;;;;;;2.00;1.77;;;21.70;31.80;;;;;;5066626;28;20656;-70
2024/03/06 08:19:04;;;;;;;2.85;2.17;;;21.80;32.00;;;;;;5062957;28;20234;-62
2024/03/06 08:21:31;;;;;;;5.18;2.30;;;21.80;32.10;;;;;;5066031;28;20190;-63
2024/03/06 08:23:59;;;;;;;4.57;1.92;;;21.80;32.10;;;;;;5063092;28;20913;-61
2024/03/06 08:26:26;;;;;;;2.30;1.52;;;21.80;32.10;;;;;;5048788;28;20213;-62
2024/03/06 08:28:53;;;;;;;11.40;2.28;;;21.90;32.20;;;;;;5051036;28;20218;-61
2024/03/06 08:31:21;;;;;;;3.22;1.90;;;21.90;32.30;;;;;;5050022;28;20198;-64
2024/03/06 08:33:48;;;;;;;4.30;1.92;;;22.00;32.40;;;;;;5054553;28;20222;-69
2024/03/06 08:36:15;;;;;;;3.28;2.17;;;22.10;32.50;;;;;;5066863;28;20749;-67
2024/03/06 08:38:42;;;;;;;4.53;2.00;;;22.10;32.40;;;;;;5057493;28;20617;-63
2024/03/06 08:41:12;;;;;;;2.55;2.10;;;22.10;32.40;;;;;;5048375;28;20310;-67
2024/03/06 08:43:40;;;;;;;2.47;2.20;;;22.20;32.50;;;;;;5057016;28;20906;-72
2024/03/06 08:46:10;;;;;;;7.00;2.30;;;22.20;32.50;;;;;;5059764;28;20245;-71
2024/03/06 08:48:40;;;;;;;3.35;2.05;;;22.20;32.50;;;;;;4992375;28;20223;-70
2024/03/06 08:51:10;;;;;;;4.70;2.50;;;22.20;32.50;;;;;;4990766;28;20822;-71
2024/03/06 08:53:50;;;;;;;5.38;2.35;;;22.20;32.50;;;;;;5051987;28;20215;-66
2024/03/06 08:56:27;;;;;;;3.90;2.30;;;22.20;32.50;;;;;;5067958;28;20190;-66
2024/03/06 08:59:09;;;;;;;6.32;2.40;;;22.20;32.80;;;;;;5005991;28;20230;-62
2024/03/06 09:01:58;;;;;;;4.57;2.05;;;22.30;32.80;;;;;;5008162;28;20277;-71
2024/03/06 09:04:34;;;;;;;4.32;2.10;;;22.30;33.00;;;;;;5053931;28;20216;-63
2024/03/06 09:07:02;;;;;;;4.50;2.60;;;22.30;33.00;;;;;;4974973;28;20210;-67
2024/03/06 09:09:34;;;;;;;3.53;2.28;;;22.30;33.00;;;;;;5045449;28;20215;-62
2024/03/06 09:12:05;;;;;;;4.93;2.40;;;22.30;33.00;;;;;;5001218;28;20206;-62
2024/03/06 09:14:38;;;;;;;5.72;2.40;;;22.30;32.90;;;;;;5032223;28;20245;-70
2024/03/06 09:17:16;;;;;;;5.25;1.90;;;22.30;32.90;;;;;;5061527;28;20194;-64
2024/03/06 09:19:51;;;;;;;3.95;2.63;;;22.30;33.10;;;;;;5032178;28;20268;-62
2024/03/06 09:22:21;;;;;;;5.18;2.30;;;22.40;33.30;;;;;;5000932;28;21067;-71
2024/03/06 09:24:49;;;;;;;6.93;2.65;;;22.40;33.30;;;;;;5029300;28;20223;-61
2024/03/06 09:27:33;;;;;;;4.40;2.45;;;22.40;33.40;;;;;;5026422;28;20196;-68
2024/03/06 09:30:00;;;;;;;7.85;2.90;;;22.40;33.20;;;;;;5061550;28;20214;-62
2024/03/06 09:32:27;;;;;;;7.47;3.80;;;22.40;33.30;;;;;;5069638;28;20197;-67
2024/03/06 09:34:58;;;;;;;7.25;4.53;;;22.40;33.30;;;;;;5068262;28;20215;-68
2024/03/06 09:37:27;;;;;;;10.27;5.95;;;22.40;33.40;;;;;;5000723;28;20225;-70
2024/03/06 09:39:56;;;;;;;12.50;6.85;;;22.40;33.40;;;;;;5068730;28;20218;-71
2024/03/06 09:42:35;;;;;;;12.63;8.85;;;22.40;33.40;;;;;;5031828;28;20191;-64
2024/03/06 09:45:03;;;;;;;13.60;8.18;;;22.40;33.40;;;;;;5061513;28;20369;-70
2024/03/06 09:47:33;;;;;;;11.48;10.27;;;22.50;33.50;;;;;;5065679;28;20553;-65
2024/03/06 09:50:02;;;;;;;10.93;9.82;;;22.50;33.50;;;;;;5067629;28;20301;-69
2024/03/06 09:52:32;;;;;;;16.38;10.13;;;22.50;33.50;;;;;;5069849;28;20191;-68
2024/03/06 09:55:00;;;;;;;21.15;10.40;;;22.50;33.50;;;;;;5067787;28;20700;-63
2024/03/06 09:57:28;;;;;;;13.75;11.30;;;22.50;33.50;;;;;;5069604;28;20202;-64
2024/03/06 09:59:55;;;;;;;15.02;10.85;;;22.50;33.50;;;;;;5067896;28;20233;-69
2024/03/06 10:02:32;;;;;;;13.55;11.27;;;22.50;33.70;;;;;;5069900;28;20197;-62
2024/03/06 10:04:59;;;;;;;14.10;12.38;;;22.50;34.00;;;;;;5066076;28;20218;-65
2024/03/06 10:07:27;;;;;;;16.25;12.23;;;22.50;34.30;;;;;;5068734;28;20205;-62
2024/03/06 10:09:54;;;;;;;12.70;11.30;;;22.60;34.40;;;;;;5068258;28;20219;-66
2024/03/06 10:12:22;;;;;;;14.82;10.75;;;22.60;34.60;;;;;;5049838;28;20199;-69
2024/03/06 10:14:57;;;;;;;14.02;11.18;;;22.60;34.50;;;;;;5060592;28;20321;-67
2024/03/06 10:17:26;;;;;;;14.57;12.10;;;22.70;34.50;;;;;;5037883;28;20290;-69
2024/03/06 10:19:54;;;;;;;22.73;13.70;;;22.70;35.10;;;;;;5061103;28;20250;-61
2024/03/06 10:25:09;;;;;;;21.40;11.27;;;22.70;34.30;;;;;;5048199;28;20223;-65
2024/03/06 10:27:36;;;;;;;31.75;12.23;;;22.60;34.00;;;;;;5060525;28;20248;-63
2024/03/06 10:30:15;;;;;;;19.75;9.45;;;22.50;33.60;;;;;;5066350;28;20310;-69
2024/03/06 10:32:44;;;;;;;16.73;7.47;;;22.30;33.40;;;;;;5067659;28;20190;-66
2024/03/06 10:35:20;;;;;;;15.15;6.07;;;22.10;33.30;;;;;;5066675;28;20214;-63
2024/03/06 10:37:47;;;;;;;17.33;5.35;;;21.90;33.40;;;;;;5067428;28;20182;-69
2024/03/06 10:40:17;;;;;;;15.80;4.80;;;21.80;33.40;;;;;;5062786;28;20227;-66
2024/03/06 10:42:45;;;;;;;16.35;3.90;;;21.60;33.50;;;;;;5066954;28;20201;-67
2024/03/06 10:45:15;;;;;;;10.98;3.40;;;21.50;33.50;;;;;;5066301;28;20218;-67
2024/03/06 10:47:47;;;;;;;10.25;3.03;;;21.50;33.60;;;;;;5066067;28;20214;-65
2024/03/06 10:50:15;;;;;;;10.52;3.03;;;21.40;33.50;;;;;;5064899;28;20226;-73
2024/03/06 10:52:44;;;;;;;8.73;2.53;;;21.30;33.40;;;;;;5062433;28;20198;-68
2024/03/06 10:55:13;;;;;;;7.40;2.50;;;21.20;33.50;;;;;;5063907;28;20228;-61
2024/03/06 10:57:42;;;;;;;13.95;2.42;;;21.20;33.50;;;;;;5052660;28;20205;-70
2024/03/06 11:00:11;;;;;;;9.32;2.92;;;21.20;33.60;;;;;;5062407;28;20218;-65
2024/03/06 11:02:40;;;;;;;11.30;2.30;;;21.20;33.50;;;;;;5052786;28;20203;-67
2024/03/06 11:05:09;;;;;;;9.07;2.90;;;21.20;33.50;;;;;;5060596;28;20214;-66
2024/03/06 11:07:36;;;;;;;10.02;2.13;;;21.20;33.50;;;;;;5066158;28;20187;-70
2024/03/06 11:10:03;;;;;;;7.28;2.53;;;21.20;33.60;;;;;;5065833;28;20225;-68
2024/03/06 11:12:41;;;;;;;8.98;2.70;;;21.30;33.80;;;;;;5064136;28;20187;-69
2024/03/06 11:15:14;;;;;;;7.03;2.40;;;21.30;34.00;;;;;;5065489;28;20211;-72
2024/03/06 11:17:43;;;;;;;12.63;2.30;;;21.30;34.10;;;;;;5063634;28;20201;-70
2024/03/06 11:20:15;;;;;;;8.15;2.45;;;21.30;34.20;;;;;;5064247;28;20229;-66
2024/03/06 11:23:09;;;;;;;8.88;2.38;;;21.30;34.20;;;;;;5064955;28;20190;-71
2024/03/06 11:26:02;;;;;;;8.88;2.50;;;21.40;34.50;;;;;;5059545;28;20268;-70
2024/03/06 11:28:31;;;;;;;8.75;2.78;;;21.40;34.60;;;;;;5050221;28;20951;-67
2024/03/06 11:30:59;;;;;;;9.15;2.38;;;21.40;34.60;;;;;;5063839;28;20225;-69
2024/03/06 11:33:37;;;;;;;7.30;2.42;;;21.40;34.60;;;;;;5065810;28;20187;-68
2024/03/06 11:36:18;;;;;;;11.75;2.90;;;21.30;34.70;;;;;;5065799;28;20191;-69
2024/03/06 11:39:03;;;;;;;7.95;2.70;;;21.30;34.90;;;;;;5064978;28;20207;-72
2024/03/06 11:41:32;;;;;;;10.77;3.08;;;21.20;34.80;;;;;;5062344;28;20914;-63
2024/03/06 11:44:01;;;;;;;7.03;2.35;;;21.20;34.80;;;;;;5065022;28;20223;-63
2024/03/06 11:46:48;;;;;;;7.93;2.47;;;21.20;34.90;;;;;;5063493;28;20641;-69
2024/03/06 11:49:21;;;;;;;8.30;2.78;;;21.20;35.00;;;;;;5062726;28;20726;-68
2024/03/06 11:51:48;;;;;;;13.32;6.68;;;21.10;35.00;;;;;;5063611;28;20203;-72
2024/03/06 11:54:16;;;;;;;9.38;3.63;;;21.10;35.00;;;;;;5064246;28;20214;-66
2024/03/06 11:56:46;;;;;;;10.93;3.20;;;21.10;35.00;;;;;;5063509;28;20195;-70
2024/03/06 11:59:14;;;;;;;8.73;3.00;;;21.00;35.00;;;;;;5063962;28;20237;-69
2024/03/06 12:01:42;;;;;;;7.90;3.13;;;21.10;35.10;;;;;;5061881;28;20671;-66
2024/03/06 12:04:09;;;;;;;11.95;3.03;;;21.10;34.90;;;;;;5063844;28;20234;-72
2024/03/06 12:06:38;;;;;;;8.07;2.60;;;21.10;34.90;;;;;;5064195;28;20900;-69
2024/03/06 12:09:10;;;;;;;9.30;2.75;;;21.10;34.80;;;;;;5062101;28;20955;-69
2024/03/06 12:11:37;;;;;;;8.02;2.60;;;21.10;34.70;;;;;;5064431;28;20643;-70
2024/03/06 12:14:05;;;;;;;9.18;2.63;;;21.10;34.70;;;;;;5064879;28;20238;-73
2024/03/06 12:16:32;;;;;;;6.85;2.63;;;21.00;34.70;;;;;;5065309;28;20203;-68
2024/03/06 12:19:00;;;;;;;8.18;2.22;;;21.00;34.70;;;;;;5064869;28;20222;-65
2024/03/06 12:21:30;;;;;;;14.15;2.80;;;21.00;34.70;;;;;;5065282;28;20187;-74
2024/03/06 12:24:05;;;;;;;8.30;2.50;;;21.00;34.70;;;;;;5063437;28;20226;-66
2024/03/06 12:26:33;;;;;;;6.70;2.50;;;21.00;34.70;;;;;;5064642;28;20197;-67
2024/03/06 12:29:07;;;;;;;9.88;2.55;;;21.00;34.60;;;;;;5065576;28;20226;-67
2024/03/06 12:31:35;;;;;;;8.85;2.63;;;21.00;34.30;;;;;;5067270;28;20652;-71
2024/03/06 12:34:03;;;;;;;8.45;2.35;;;21.10;34.20;;;;;;5069269;28;20221;-72
2024/03/06 12:36:31;;;;;;;10.48;2.58;;;21.10;34.10;;;;;;5054015;28;20205;-71
2024/03/06 12:39:01;;;;;;;5.05;2.20;;;21.20;34.30;;;;;;5058864;28;20205;-62
2024/03/06 12:41:29;;;;;;;9.63;2.50;;;21.30;34.20;;;;;;5065326;28;20313;-73
2024/03/06 12:43:57;;;;;;;12.30;2.75;;;21.50;34.30;;;;;;5068913;28;20630;-69
2024/03/06 12:46:27;;;;;;;7.22;2.38;;;21.70;34.30;;;;;;5067886;28;20183;-64
2024/03/06 12:48:55;;;;;;;5.55;2.17;;;21.90;34.20;;;;;;5032338;28;20573;-62
2024/03/06 12:51:22;;;;;;;7.20;2.53;;;22.00;34.10;;;;;;5069171;28;20667;-64
2024/03/06 12:53:49;;;;;;;5.18;2.20;;;22.10;34.10;;;;;;5069415;28;20195;-60